sensor_id;sensor_type;location;lat;lon;timestamp;P1;durP1;ratioP1;P2;durP2;ratioP2
32297;SDS011;18782;48.984;8.548;2024-02-16T00:01:03;8.48;;;3.97;;
32297;SDS011;18782;48.984;8.548;2024-02-16T00:03:31;9.45;;;3.95;;
32297;SDS011;18782;48.984;8.548;2024-02-16T00:06:00;6.10;;;4.03;;
32297;SDS011;18782;48.984;8.548;2024-02-16T00:08:28;7.70;;;4.03;;
32297;SDS011;18782;48.984;8.548;2024-02-16T00:10:56;8.27;;;4.22;;
32297;SDS011;18782;48.984;8.548;2024-02-16T00:13:24;25.48;;;12.48;;
32297;SDS011;18782;48.984;8.548;2024-02-16T00:15:52;12.13;;;6.00;;
32297;SDS011;18782;48.984;8.548;2024-02-16T00:18:20;6.38;;;3.88;;
32297;SDS011;18782;48.984;8.548;2024-02-16T00:20:47;8.05;;;4.45;;
32297;SDS011;18782;48.984;8.548;2024-02-16T00:23:16;7.90;;;4.35;;
32297;SDS011;18782;48.984;8.548;2024-02-16T00:25:45;7.03;;;4.15;;
32297;SDS011;18782;48.984;8.548;2024-02-16T00:28:13;7.88;;;3.65;;
32297;SDS011;18782;48.984;8.548;2024-02-16T00:30:41;6.47;;;2.90;;
32297;SDS011;18782;48.984;8.548;2024-02-16T00:33:08;7.55;;;3.28;;
32297;SDS011;18782;48.984;8.548;2024-02-16T00:35:36;5.82;;;3.13;;
32297;SDS011;18782;48.984;8.548;2024-02-16T00:38:04;8.57;;;5.32;;
32297;SDS011;18782;48.984;8.548;2024-02-16T00:40:33;7.40;;;4.63;;
32297;SDS011;18782;48.984;8.548;2024-02-16T00:43:02;8.38;;;3.40;;
32297;SDS011;18782;48.984;8.548;2024-02-16T00:45:30;5.30;;;3.25;;
32297;SDS011;18782;48.984;8.548;2024-02-16T00:47:58;4.95;;;2.85;;
32297;SDS011;18782;48.984;8.548;2024-02-16T00:50:28;6.75;;;3.15;;
32297;SDS011;18782;48.984;8.548;2024-02-16T00:52:55;7.53;;;3.83;;
32297;SDS011;18782;48.984;8.548;2024-02-16T00:55:23;8.43;;;3.92;;
32297;SDS011;18782;48.984;8.548;2024-02-16T00:57:52;6.93;;;3.20;;
32297;SDS011;18782;48.984;8.548;2024-02-16T01:00:20;5.50;;;3.13;;
32297;SDS011;18782;48.984;8.548;2024-02-16T01:02:49;5.78;;;3.05;;
32297;SDS011;18782;48.984;8.548;2024-02-16T01:05:18;5.75;;;3.03;;
32297;SDS011;18782;48.984;8.548;2024-02-16T01:07:46;6.93;;;3.20;;
32297;SDS011;18782;48.984;8.548;2024-02-16T01:10:14;6.88;;;3.20;;
32297;SDS011;18782;48.984;8.548;2024-02-16T01:12:41;10.05;;;3.10;;
32297;SDS011;18782;48.984;8.548;2024-02-16T01:15:10;6.10;;;3.40;;
32297;SDS011;18782;48.984;8.548;2024-02-16T01:17:38;4.57;;;3.03;;
32297;SDS011;18782;48.984;8.548;2024-02-16T01:20:06;5.47;;;3.10;;
32297;SDS011;18782;48.984;8.548;2024-02-16T01:22:37;6.15;;;3.35;;
32297;SDS011;18782;48.984;8.548;2024-02-16T01:25:05;5.18;;;3.08;;
32297;SDS011;18782;48.984;8.548;2024-02-16T01:27:34;3.53;;;2.65;;
32297;SDS011;18782;48.984;8.548;2024-02-16T01:30:03;7.25;;;2.90;;
32297;SDS011;18782;48.984;8.548;2024-02-16T01:32:32;5.47;;;2.50;;
32297;SDS011;18782;48.984;8.548;2024-02-16T01:35:01;6.38;;;2.90;;
32297;SDS011;18782;48.984;8.548;2024-02-16T01:37:29;5.35;;;2.75;;
32297;SDS011;18782;48.984;8.548;2024-02-16T01:39:57;4.00;;;2.58;;
32297;SDS011;18782;48.984;8.548;2024-02-16T01:42:25;4.68;;;2.53;;
32297;SDS011;18782;48.984;8.548;2024-02-16T01:44:53;6.35;;;2.88;;
32297;SDS011;18782;48.984;8.548;2024-02-16T01:47:20;4.45;;;3.00;;
32297;SDS011;18782;48.984;8.548;2024-02-16T01:49:50;5.03;;;2.97;;
32297;SDS011;18782;48.984;8.548;2024-02-16T01:52:18;4.93;;;2.58;;
32297;SDS011;18782;48.984;8.548;2024-02-16T01:54:45;5.95;;;2.70;;
32297;SDS011;18782;48.984;8.548;2024-02-16T01:57:13;5.03;;;2.97;;
32297;SDS011;18782;48.984;8.548;2024-02-16T01:59:41;5.47;;;2.60;;
32297;SDS011;18782;48.984;8.548;2024-02-16T02:02:10;4.40;;;2.63;;
32297;SDS011;18782;48.984;8.548;2024-02-16T02:04:37;5.53;;;2.60;;
32297;SDS011;18782;48.984;8.548;2024-02-16T02:07:12;5.80;;;2.38;;
32297;SDS011;18782;48.984;8.548;2024-02-16T02:09:41;5.40;;;2.85;;
32297;SDS011;18782;48.984;8.548;2024-02-16T02:12:09;4.15;;;2.67;;
32297;SDS011;18782;48.984;8.548;2024-02-16T02:14:37;6.38;;;2.83;;
32297;SDS011;18782;48.984;8.548;2024-02-16T02:17:05;4.95;;;2.83;;
32297;SDS011;18782;48.984;8.548;2024-02-16T02:19:33;5.95;;;2.90;;
32297;SDS011;18782;48.984;8.548;2024-02-16T02:22:00;5.53;;;2.80;;
32297;SDS011;18782;48.984;8.548;2024-02-16T02:24:30;7.20;;;3.03;;
32297;SDS011;18782;48.984;8.548;2024-02-16T02:26:58;4.93;;;2.78;;
32297;SDS011;18782;48.984;8.548;2024-02-16T02:29:25;5.75;;;3.08;;
32297;SDS011;18782;48.984;8.548;2024-02-16T02:31:53;4.82;;;2.75;;
32297;SDS011;18782;48.984;8.548;2024-02-16T02:34:21;5.13;;;2.58;;
32297;SDS011;18782;48.984;8.548;2024-02-16T02:36:49;5.55;;;2.80;;
32297;SDS011;18782;48.984;8.548;2024-02-16T02:39:16;6.53;;;2.90;;
32297;SDS011;18782;48.984;8.548;2024-02-16T02:41:45;5.97;;;2.67;;
32297;SDS011;18782;48.984;8.548;2024-02-16T02:44:13;4.78;;;2.67;;
32297;SDS011;18782;48.984;8.548;2024-02-16T02:46:41;4.63;;;2.50;;
32297;SDS011;18782;48.984;8.548;2024-02-16T02:49:08;4.10;;;2.58;;
32297;SDS011;18782;48.984;8.548;2024-02-16T02:51:36;7.20;;;2.53;;
32297;SDS011;18782;48.984;8.548;2024-02-16T02:54:04;5.25;;;2.47;;
32297;SDS011;18782;48.984;8.548;2024-02-16T02:56:32;4.60;;;2.28;;
32297;SDS011;18782;48.984;8.548;2024-02-16T02:59:01;3.95;;;2.25;;
32297;SDS011;18782;48.984;8.548;2024-02-16T03:01:30;5.57;;;2.05;;
32297;SDS011;18782;48.984;8.548;2024-02-16T03:03:57;4.05;;;2.08;;
32297;SDS011;18782;48.984;8.548;2024-02-16T03:06:26;6.57;;;3.63;;
32297;SDS011;18782;48.984;8.548;2024-02-16T03:08:54;9.45;;;5.13;;
32297;SDS011;18782;48.984;8.548;2024-02-16T03:11:22;7.35;;;3.20;;
32297;SDS011;18782;48.984;8.548;2024-02-16T03:13:50;6.07;;;2.58;;
32297;SDS011;18782;48.984;8.548;2024-02-16T03:16:19;5.35;;;2.60;;
32297;SDS011;18782;48.984;8.548;2024-02-16T03:18:47;6.05;;;3.03;;
32297;SDS011;18782;48.984;8.548;2024-02-16T03:21:15;5.78;;;2.65;;
32297;SDS011;18782;48.984;8.548;2024-02-16T03:23:44;4.60;;;2.75;;
32297;SDS011;18782;48.984;8.548;2024-02-16T03:26:14;13.50;;;6.82;;
32297;SDS011;18782;48.984;8.548;2024-02-16T03:28:43;5.40;;;2.95;;
32297;SDS011;18782;48.984;8.548;2024-02-16T03:31:16;3.67;;;2.40;;
32297;SDS011;18782;48.984;8.548;2024-02-16T03:33:46;5.35;;;2.47;;
32297;SDS011;18782;48.984;8.548;2024-02-16T03:36:14;4.65;;;2.10;;
32297;SDS011;18782;48.984;8.548;2024-02-16T03:38:43;4.75;;;2.30;;
32297;SDS011;18782;48.984;8.548;2024-02-16T03:41:12;5.38;;;2.20;;
32297;SDS011;18782;48.984;8.548;2024-02-16T03:43:40;4.43;;;2.10;;
32297;SDS011;18782;48.984;8.548;2024-02-16T03:46:09;5.32;;;2.90;;
32297;SDS011;18782;48.984;8.548;2024-02-16T03:48:37;7.07;;;2.80;;
32297;SDS011;18782;48.984;8.548;2024-02-16T03:51:07;3.60;;;2.28;;
32297;SDS011;18782;48.984;8.548;2024-02-16T03:53:35;7.20;;;2.78;;
32297;SDS011;18782;48.984;8.548;2024-02-16T03:56:03;4.35;;;2.60;;
32297;SDS011;18782;48.984;8.548;2024-02-16T03:58:34;6.18;;;2.40;;
32297;SDS011;18782;48.984;8.548;2024-02-16T04:01:03;5.25;;;2.35;;
32297;SDS011;18782;48.984;8.548;2024-02-16T04:03:31;6.85;;;2.58;;
32297;SDS011;18782;48.984;8.548;2024-02-16T04:05:59;4.20;;;2.35;;
32297;SDS011;18782;48.984;8.548;2024-02-16T04:08:29;4.63;;;2.72;;
32297;SDS011;18782;48.984;8.548;2024-02-16T04:10:57;4.38;;;2.65;;
32297;SDS011;18782;48.984;8.548;2024-02-16T04:13:25;4.20;;;2.20;;
32297;SDS011;18782;48.984;8.548;2024-02-16T04:15:53;4.10;;;2.22;;
32297;SDS011;18782;48.984;8.548;2024-02-16T04:18:21;6.65;;;2.50;;
32297;SDS011;18782;48.984;8.548;2024-02-16T04:20:49;5.18;;;2.45;;
32297;SDS011;18782;48.984;8.548;2024-02-16T04:23:16;9.43;;;2.80;;
32297;SDS011;18782;48.984;8.548;2024-02-16T04:25:45;4.53;;;2.35;;
32297;SDS011;18782;48.984;8.548;2024-02-16T04:28:13;5.00;;;2.47;;
32297;SDS011;18782;48.984;8.548;2024-02-16T04:30:41;4.60;;;2.50;;
32297;SDS011;18782;48.984;8.548;2024-02-16T04:33:09;4.47;;;2.17;;
32297;SDS011;18782;48.984;8.548;2024-02-16T04:35:37;4.72;;;2.40;;
32297;SDS011;18782;48.984;8.548;2024-02-16T04:38:05;4.97;;;2.33;;
32297;SDS011;18782;48.984;8.548;2024-02-16T04:40:34;5.75;;;2.20;;
32297;SDS011;18782;48.984;8.548;2024-02-16T04:43:05;3.05;;;1.70;;
32297;SDS011;18782;48.984;8.548;2024-02-16T04:45:33;3.47;;;1.90;;
32297;SDS011;18782;48.984;8.548;2024-02-16T04:48:05;2.25;;;1.38;;
32297;SDS011;18782;48.984;8.548;2024-02-16T04:50:33;4.90;;;1.88;;
32297;SDS011;18782;48.984;8.548;2024-02-16T04:53:01;5.10;;;2.50;;
32297;SDS011;18782;48.984;8.548;2024-02-16T04:55:30;5.10;;;2.22;;
32297;SDS011;18782;48.984;8.548;2024-02-16T04:57:58;4.00;;;2.28;;
32297;SDS011;18782;48.984;8.548;2024-02-16T05:00:27;5.68;;;2.10;;
32297;SDS011;18782;48.984;8.548;2024-02-16T05:02:54;5.85;;;3.00;;
32297;SDS011;18782;48.984;8.548;2024-02-16T05:05:22;5.38;;;2.45;;
32297;SDS011;18782;48.984;8.548;2024-02-16T05:07:51;4.18;;;2.13;;
32297;SDS011;18782;48.984;8.548;2024-02-16T05:10:18;3.47;;;2.30;;
32297;SDS011;18782;48.984;8.548;2024-02-16T05:12:46;5.40;;;2.28;;
32297;SDS011;18782;48.984;8.548;2024-02-16T05:15:14;5.13;;;1.90;;
32297;SDS011;18782;48.984;8.548;2024-02-16T05:17:46;4.57;;;1.92;;
32297;SDS011;18782;48.984;8.548;2024-02-16T05:20:16;7.72;;;2.40;;
32297;SDS011;18782;48.984;8.548;2024-02-16T05:22:46;5.80;;;2.47;;
32297;SDS011;18782;48.984;8.548;2024-02-16T05:25:15;6.25;;;2.40;;
32297;SDS011;18782;48.984;8.548;2024-02-16T05:27:44;5.60;;;2.40;;
32297;SDS011;18782;48.984;8.548;2024-02-16T05:30:13;6.00;;;2.22;;
32297;SDS011;18782;48.984;8.548;2024-02-16T05:32:42;5.80;;;2.30;;
32297;SDS011;18782;48.984;8.548;2024-02-16T05:35:12;3.53;;;2.03;;
32297;SDS011;18782;48.984;8.548;2024-02-16T05:37:41;4.00;;;1.90;;
32297;SDS011;18782;48.984;8.548;2024-02-16T05:40:11;7.13;;;2.50;;
32297;SDS011;18782;48.984;8.548;2024-02-16T05:42:48;4.90;;;2.65;;
32297;SDS011;18782;48.984;8.548;2024-02-16T05:45:16;6.10;;;2.60;;
32297;SDS011;18782;48.984;8.548;2024-02-16T05:47:44;6.05;;;2.65;;
32297;SDS011;18782;48.984;8.548;2024-02-16T05:50:14;4.38;;;2.72;;
32297;SDS011;18782;48.984;8.548;2024-02-16T05:52:43;5.07;;;2.45;;
32297;SDS011;18782;48.984;8.548;2024-02-16T05:55:11;5.93;;;2.40;;
32297;SDS011;18782;48.984;8.548;2024-02-16T05:57:41;4.90;;;2.20;;
32297;SDS011;18782;48.984;8.548;2024-02-16T06:00:09;5.75;;;2.40;;
32297;SDS011;18782;48.984;8.548;2024-02-16T06:02:39;5.40;;;2.08;;
32297;SDS011;18782;48.984;8.548;2024-02-16T06:05:07;6.03;;;2.50;;
32297;SDS011;18782;48.984;8.548;2024-02-16T06:07:36;6.70;;;2.40;;
32297;SDS011;18782;48.984;8.548;2024-02-16T06:10:05;5.93;;;2.28;;
32297;SDS011;18782;48.984;8.548;2024-02-16T06:12:37;4.53;;;2.17;;
32297;SDS011;18782;48.984;8.548;2024-02-16T06:15:05;5.22;;;2.30;;
32297;SDS011;18782;48.984;8.548;2024-02-16T06:17:34;3.85;;;2.17;;
32297;SDS011;18782;48.984;8.548;2024-02-16T06:20:03;6.00;;;2.05;;
32297;SDS011;18782;48.984;8.548;2024-02-16T06:22:34;4.68;;;2.00;;
32297;SDS011;18782;48.984;8.548;2024-02-16T06:25:03;5.90;;;2.13;;
32297;SDS011;18782;48.984;8.548;2024-02-16T06:27:31;4.75;;;2.60;;
32297;SDS011;18782;48.984;8.548;2024-02-16T06:29:59;3.67;;;2.13;;
32297;SDS011;18782;48.984;8.548;2024-02-16T06:32:27;5.07;;;2.60;;
32297;SDS011;18782;48.984;8.548;2024-02-16T06:34:56;5.90;;;2.75;;
32297;SDS011;18782;48.984;8.548;2024-02-16T06:37:24;5.13;;;2.40;;
32297;SDS011;18782;48.984;8.548;2024-02-16T06:39:52;5.93;;;2.63;;
32297;SDS011;18782;48.984;8.548;2024-02-16T06:42:21;5.25;;;2.10;;
32297;SDS011;18782;48.984;8.548;2024-02-16T06:44:48;3.97;;;2.20;;
32297;SDS011;18782;48.984;8.548;2024-02-16T06:47:16;4.97;;;2.47;;
32297;SDS011;18782;48.984;8.548;2024-02-16T06:49:45;4.78;;;2.42;;
32297;SDS011;18782;48.984;8.548;2024-02-16T06:52:13;4.32;;;2.13;;
32297;SDS011;18782;48.984;8.548;2024-02-16T06:54:42;5.28;;;2.97;;
32297;SDS011;18782;48.984;8.548;2024-02-16T06:57:10;5.72;;;2.95;;
32297;SDS011;18782;48.984;8.548;2024-02-16T06:59:40;7.55;;;2.92;;
32297;SDS011;18782;48.984;8.548;2024-02-16T07:02:07;4.25;;;2.33;;
32297;SDS011;18782;48.984;8.548;2024-02-16T07:04:39;4.82;;;2.28;;
32297;SDS011;18782;48.984;8.548;2024-02-16T07:07:07;4.72;;;2.75;;
32297;SDS011;18782;48.984;8.548;2024-02-16T07:09:35;5.68;;;2.60;;
32297;SDS011;18782;48.984;8.548;2024-02-16T07:12:03;5.10;;;2.58;;
32297;SDS011;18782;48.984;8.548;2024-02-16T07:14:33;7.32;;;2.83;;
32297;SDS011;18782;48.984;8.548;2024-02-16T07:17:01;4.45;;;2.88;;
32297;SDS011;18782;48.984;8.548;2024-02-16T07:19:29;4.60;;;2.28;;
32297;SDS011;18782;48.984;8.548;2024-02-16T07:21:57;8.20;;;2.53;;
32297;SDS011;18782;48.984;8.548;2024-02-16T07:24:25;4.00;;;2.03;;
32297;SDS011;18782;48.984;8.548;2024-02-16T07:26:53;4.13;;;2.47;;
32297;SDS011;18782;48.984;8.548;2024-02-16T07:29:21;6.05;;;2.75;;
32297;SDS011;18782;48.984;8.548;2024-02-16T07:31:49;3.58;;;2.50;;
32297;SDS011;18782;48.984;8.548;2024-02-16T07:34:20;4.32;;;2.60;;
32297;SDS011;18782;48.984;8.548;2024-02-16T07:36:48;7.30;;;3.20;;
32297;SDS011;18782;48.984;8.548;2024-02-16T07:39:15;4.72;;;2.80;;
32297;SDS011;18782;48.984;8.548;2024-02-16T07:41:43;5.75;;;3.10;;
32297;SDS011;18782;48.984;8.548;2024-02-16T07:44:11;7.15;;;3.17;;
32297;SDS011;18782;48.984;8.548;2024-02-16T07:46:41;5.45;;;3.13;;
32297;SDS011;18782;48.984;8.548;2024-02-16T07:49:12;6.85;;;3.03;;
32297;SDS011;18782;48.984;8.548;2024-02-16T07:51:41;6.88;;;3.58;;
32297;SDS011;18782;48.984;8.548;2024-02-16T07:54:09;9.48;;;3.45;;
32297;SDS011;18782;48.984;8.548;2024-02-16T07:56:36;13.48;;;7.47;;
32297;SDS011;18782;48.984;8.548;2024-02-16T07:59:04;8.98;;;6.05;;
32297;SDS011;18782;48.984;8.548;2024-02-16T08:01:32;8.43;;;5.15;;
32297;SDS011;18782;48.984;8.548;2024-02-16T08:04:00;8.00;;;4.68;;
32297;SDS011;18782;48.984;8.548;2024-02-16T08:06:31;7.18;;;3.58;;
32297;SDS011;18782;48.984;8.548;2024-02-16T08:09:01;7.25;;;3.53;;
32297;SDS011;18782;48.984;8.548;2024-02-16T08:11:29;7.15;;;3.33;;
32297;SDS011;18782;48.984;8.548;2024-02-16T08:13:57;7.03;;;3.50;;
32297;SDS011;18782;48.984;8.548;2024-02-16T08:16:27;10.77;;;5.45;;
32297;SDS011;18782;48.984;8.548;2024-02-16T08:18:54;6.85;;;3.80;;
32297;SDS011;18782;48.984;8.548;2024-02-16T08:21:22;6.28;;;3.40;;
32297;SDS011;18782;48.984;8.548;2024-02-16T08:23:50;4.93;;;2.63;;
32297;SDS011;18782;48.984;8.548;2024-02-16T08:26:19;4.40;;;2.67;;
32297;SDS011;18782;48.984;8.548;2024-02-16T08:28:47;4.15;;;2.47;;
32297;SDS011;18782;48.984;8.548;2024-02-16T08:31:15;4.88;;;2.22;;
32297;SDS011;18782;48.984;8.548;2024-02-16T08:33:44;3.70;;;1.70;;
32297;SDS011;18782;48.984;8.548;2024-02-16T08:36:13;3.85;;;2.00;;
32297;SDS011;18782;48.984;8.548;2024-02-16T08:38:41;6.22;;;1.90;;
32297;SDS011;18782;48.984;8.548;2024-02-16T08:41:09;3.30;;;1.50;;
32297;SDS011;18782;48.984;8.548;2024-02-16T08:43:38;2.90;;;1.88;;
32297;SDS011;18782;48.984;8.548;2024-02-16T08:46:06;6.65;;;2.22;;
32297;SDS011;18782;48.984;8.548;2024-02-16T08:48:34;3.67;;;2.00;;
32297;SDS011;18782;48.984;8.548;2024-02-16T08:51:02;2.75;;;1.60;;
32297;SDS011;18782;48.984;8.548;2024-02-16T08:53:32;7.05;;;2.80;;
32297;SDS011;18782;48.984;8.548;2024-02-16T08:56:00;3.33;;;2.15;;
32297;SDS011;18782;48.984;8.548;2024-02-16T08:58:27;4.97;;;2.50;;
32297;SDS011;18782;48.984;8.548;2024-02-16T09:00:56;4.65;;;2.30;;
32297;SDS011;18782;48.984;8.548;2024-02-16T09:03:24;3.58;;;2.10;;
32297;SDS011;18782;48.984;8.548;2024-02-16T09:05:52;4.25;;;2.38;;
32297;SDS011;18782;48.984;8.548;2024-02-16T09:08:20;6.07;;;1.88;;
32297;SDS011;18782;48.984;8.548;2024-02-16T09:10:47;3.17;;;1.85;;
32297;SDS011;18782;48.984;8.548;2024-02-16T09:13:16;3.60;;;2.22;;
32297;SDS011;18782;48.984;8.548;2024-02-16T09:15:59;5.15;;;2.38;;
32297;SDS011;18782;48.984;8.548;2024-02-16T09:18:29;4.70;;;2.97;;
32297;SDS011;18782;48.984;8.548;2024-02-16T09:20:58;4.45;;;2.50;;
32297;SDS011;18782;48.984;8.548;2024-02-16T09:23:25;4.57;;;2.17;;
32297;SDS011;18782;48.984;8.548;2024-02-16T09:25:53;4.55;;;1.98;;
32297;SDS011;18782;48.984;8.548;2024-02-16T09:28:21;4.88;;;2.45;;
32297;SDS011;18782;48.984;8.548;2024-02-16T09:30:55;6.40;;;2.58;;
32297;SDS011;18782;48.984;8.548;2024-02-16T09:33:25;6.30;;;2.10;;
32297;SDS011;18782;48.984;8.548;2024-02-16T09:35:54;3.75;;;2.00;;
32297;SDS011;18782;48.984;8.548;2024-02-16T09:38:22;3.50;;;2.05;;
32297;SDS011;18782;48.984;8.548;2024-02-16T09:40:50;4.28;;;2.65;;
32297;SDS011;18782;48.984;8.548;2024-02-16T09:43:24;4.63;;;2.10;;
32297;SDS011;18782;48.984;8.548;2024-02-16T09:45:53;7.47;;;2.50;;
32297;SDS011;18782;48.984;8.548;2024-02-16T09:48:21;4.80;;;2.45;;
32297;SDS011;18782;48.984;8.548;2024-02-16T09:50:51;6.40;;;3.65;;
32297;SDS011;18782;48.984;8.548;2024-02-16T09:53:21;4.32;;;2.42;;
32297;SDS011;18782;48.984;8.548;2024-02-16T09:55:52;3.22;;;1.92;;
32297;SDS011;18782;48.984;8.548;2024-02-16T09:58:20;7.00;;;2.38;;
32297;SDS011;18782;48.984;8.548;2024-02-16T10:00:49;5.88;;;2.92;;
32297;SDS011;18782;48.984;8.548;2024-02-16T10:03:24;4.38;;;2.33;;
32297;SDS011;18782;48.984;8.548;2024-02-16T10:06:04;3.15;;;1.95;;
32297;SDS011;18782;48.984;8.548;2024-02-16T10:08:34;3.95;;;2.20;;
32297;SDS011;18782;48.984;8.548;2024-02-16T10:11:14;4.47;;;2.25;;
32297;SDS011;18782;48.984;8.548;2024-02-16T10:13:42;4.05;;;2.10;;
32297;SDS011;18782;48.984;8.548;2024-02-16T10:16:10;5.07;;;2.30;;
32297;SDS011;18782;48.984;8.548;2024-02-16T10:18:38;4.03;;;2.05;;
32297;SDS011;18782;48.984;8.548;2024-02-16T10:21:08;3.90;;;2.00;;
32297;SDS011;18782;48.984;8.548;2024-02-16T10:23:36;2.67;;;1.60;;
32297;SDS011;18782;48.984;8.548;2024-02-16T10:26:06;6.32;;;2.40;;
32297;SDS011;18782;48.984;8.548;2024-02-16T10:28:34;3.63;;;2.38;;
32297;SDS011;18782;48.984;8.548;2024-02-16T10:31:01;4.80;;;2.95;;
32297;SDS011;18782;48.984;8.548;2024-02-16T10:33:31;5.75;;;2.35;;
32297;SDS011;18782;48.984;8.548;2024-02-16T10:36:00;3.30;;;2.15;;
32297;SDS011;18782;48.984;8.548;2024-02-16T10:38:30;6.05;;;2.40;;
32297;SDS011;18782;48.984;8.548;2024-02-16T10:40:58;21.60;;;7.68;;
32297;SDS011;18782;48.984;8.548;2024-02-16T10:43:27;6.88;;;3.22;;
32297;SDS011;18782;48.984;8.548;2024-02-16T10:45:57;5.25;;;2.28;;
32297;SDS011;18782;48.984;8.548;2024-02-16T10:48:26;4.95;;;2.30;;
32297;SDS011;18782;48.984;8.548;2024-02-16T10:50:54;4.18;;;2.25;;
32297;SDS011;18782;48.984;8.548;2024-02-16T10:53:24;3.47;;;2.30;;
32297;SDS011;18782;48.984;8.548;2024-02-16T10:55:58;8.13;;;3.83;;
32297;SDS011;18782;48.984;8.548;2024-02-16T10:58:26;6.90;;;4.00;;
32297;SDS011;18782;48.984;8.548;2024-02-16T11:00:56;5.43;;;2.83;;
32297;SDS011;18782;48.984;8.548;2024-02-16T11:03:25;5.22;;;2.45;;
32297;SDS011;18782;48.984;8.548;2024-02-16T11:05:54;5.97;;;2.35;;
32297;SDS011;18782;48.984;8.548;2024-02-16T11:08:24;6.35;;;2.70;;
32297;SDS011;18782;48.984;8.548;2024-02-16T11:11:00;3.42;;;1.98;;
32297;SDS011;18782;48.984;8.548;2024-02-16T11:13:31;4.25;;;1.98;;
32297;SDS011;18782;48.984;8.548;2024-02-16T11:16:00;5.63;;;1.70;;
32297;SDS011;18782;48.984;8.548;2024-02-16T11:18:29;3.50;;;1.45;;
32297;SDS011;18782;48.984;8.548;2024-02-16T11:21:01;4.20;;;1.55;;
32297;SDS011;18782;48.984;8.548;2024-02-16T11:23:30;5.30;;;1.15;;
32297;SDS011;18782;48.984;8.548;2024-02-16T11:26:03;2.70;;;1.45;;
32297;SDS011;18782;48.984;8.548;2024-02-16T11:28:33;2.40;;;1.48;;
32297;SDS011;18782;48.984;8.548;2024-02-16T11:31:01;4.45;;;1.45;;
32297;SDS011;18782;48.984;8.548;2024-02-16T11:33:29;2.40;;;1.30;;
32297;SDS011;18782;48.984;8.548;2024-02-16T11:35:58;3.63;;;1.42;;
32297;SDS011;18782;48.984;8.548;2024-02-16T11:38:27;4.32;;;1.40;;
32297;SDS011;18782;48.984;8.548;2024-02-16T11:40:58;3.88;;;1.60;;
32297;SDS011;18782;48.984;8.548;2024-02-16T11:43:29;3.60;;;1.25;;
32297;SDS011;18782;48.984;8.548;2024-02-16T11:45:57;5.50;;;1.58;;
32297;SDS011;18782;48.984;8.548;2024-02-16T11:48:26;4.10;;;1.10;;
32297;SDS011;18782;48.984;8.548;2024-02-16T11:50:59;6.47;;;1.30;;
32297;SDS011;18782;48.984;8.548;2024-02-16T11:55:55;4.60;;;1.52;;
32297;SDS011;18782;48.984;8.548;2024-02-16T11:58:23;3.90;;;1.00;;
32297;SDS011;18782;48.984;8.548;2024-02-16T12:00:53;6.20;;;2.95;;
32297;SDS011;18782;48.984;8.548;2024-02-16T12:03:26;5.38;;;1.60;;
32297;SDS011;18782;48.984;8.548;2024-02-16T12:05:55;4.18;;;1.30;;
32297;SDS011;18782;48.984;8.548;2024-02-16T12:08:24;4.30;;;1.30;;
32297;SDS011;18782;48.984;8.548;2024-02-16T12:10:59;4.90;;;1.38;;
32297;SDS011;18782;48.984;8.548;2024-02-16T12:13:27;3.67;;;1.65;;
32297;SDS011;18782;48.984;8.548;2024-02-16T12:15:56;4.13;;;1.35;;
32297;SDS011;18782;48.984;8.548;2024-02-16T12:18:24;9.07;;;1.67;;
32297;SDS011;18782;48.984;8.548;2024-02-16T12:20:57;5.32;;;1.60;;
32297;SDS011;18782;48.984;8.548;2024-02-16T12:23:26;3.97;;;1.40;;
32297;SDS011;18782;48.984;8.548;2024-02-16T12:25:54;8.40;;;1.50;;
32297;SDS011;18782;48.984;8.548;2024-02-16T12:28:23;5.57;;;1.70;;
32297;SDS011;18782;48.984;8.548;2024-02-16T12:30:52;2.83;;;1.30;;
32297;SDS011;18782;48.984;8.548;2024-02-16T12:33:21;5.68;;;1.38;;
32297;SDS011;18782;48.984;8.548;2024-02-16T12:35:49;5.70;;;1.95;;
32297;SDS011;18782;48.984;8.548;2024-02-16T12:38:17;6.10;;;1.50;;
32297;SDS011;18782;48.984;8.548;2024-02-16T12:40:45;4.55;;;1.15;;
32297;SDS011;18782;48.984;8.548;2024-02-16T12:43:13;2.90;;;1.30;;
32297;SDS011;18782;48.984;8.548;2024-02-16T12:45:41;2.30;;;1.20;;
32297;SDS011;18782;48.984;8.548;2024-02-16T12:48:09;6.00;;;1.45;;
32297;SDS011;18782;48.984;8.548;2024-02-16T12:50:41;2.03;;;1.27;;
32297;SDS011;18782;48.984;8.548;2024-02-16T12:53:08;4.15;;;1.73;;
32297;SDS011;18782;48.984;8.548;2024-02-16T12:55:38;2.72;;;1.20;;
32297;SDS011;18782;48.984;8.548;2024-02-16T12:58:05;3.85;;;1.10;;
32297;SDS011;18782;48.984;8.548;2024-02-16T13:00:33;5.70;;;2.22;;
32297;SDS011;18782;48.984;8.548;2024-02-16T13:03:01;4.60;;;1.58;;
32297;SDS011;18782;48.984;8.548;2024-02-16T13:05:29;3.65;;;1.17;;
32297;SDS011;18782;48.984;8.548;2024-02-16T13:07:59;5.43;;;1.50;;
32297;SDS011;18782;48.984;8.548;2024-02-16T13:10:27;3.20;;;1.20;;
32297;SDS011;18782;48.984;8.548;2024-02-16T13:12:56;5.35;;;1.67;;
32297;SDS011;18782;48.984;8.548;2024-02-16T13:15:24;2.90;;;1.10;;
32297;SDS011;18782;48.984;8.548;2024-02-16T13:17:54;4.28;;;1.27;;
32297;SDS011;18782;48.984;8.548;2024-02-16T13:20:23;3.03;;;1.10;;
32297;SDS011;18782;48.984;8.548;2024-02-16T13:22:51;4.88;;;1.10;;
32297;SDS011;18782;48.984;8.548;2024-02-16T13:25:20;4.85;;;1.30;;
32297;SDS011;18782;48.984;8.548;2024-02-16T13:27:48;2.38;;;1.05;;
32297;SDS011;18782;48.984;8.548;2024-02-16T13:30:16;2.55;;;1.30;;
32297;SDS011;18782;48.984;8.548;2024-02-16T13:32:44;2.05;;;0.80;;
32297;SDS011;18782;48.984;8.548;2024-02-16T13:35:11;2.30;;;1.00;;
32297;SDS011;18782;48.984;8.548;2024-02-16T13:37:42;2.28;;;0.70;;
32297;SDS011;18782;48.984;8.548;2024-02-16T13:40:10;2.53;;;1.00;;
32297;SDS011;18782;48.984;8.548;2024-02-16T13:42:40;2.55;;;0.80;;
32297;SDS011;18782;48.984;8.548;2024-02-16T13:45:08;3.20;;;1.13;;
32297;SDS011;18782;48.984;8.548;2024-02-16T13:47:37;1.80;;;0.80;;
32297;SDS011;18782;48.984;8.548;2024-02-16T13:50:06;3.17;;;0.90;;
32297;SDS011;18782;48.984;8.548;2024-02-16T13:52:34;2.83;;;0.70;;
32297;SDS011;18782;48.984;8.548;2024-02-16T13:55:02;2.05;;;0.70;;
32297;SDS011;18782;48.984;8.548;2024-02-16T13:57:32;2.63;;;0.73;;
32297;SDS011;18782;48.984;8.548;2024-02-16T14:00:01;3.10;;;1.00;;
32297;SDS011;18782;48.984;8.548;2024-02-16T14:02:37;4.70;;;1.05;;
32297;SDS011;18782;48.984;8.548;2024-02-16T14:05:05;5.40;;;0.93;;
32297;SDS011;18782;48.984;8.548;2024-02-16T14:07:33;2.45;;;0.70;;
32297;SDS011;18782;48.984;8.548;2024-02-16T14:10:12;3.47;;;0.75;;
32297;SDS011;18782;48.984;8.548;2024-02-16T14:12:40;7.78;;;1.55;;
32297;SDS011;18782;48.984;8.548;2024-02-16T14:15:09;1.85;;;0.90;;
32297;SDS011;18782;48.984;8.548;2024-02-16T14:17:42;3.67;;;1.10;;
32297;SDS011;18782;48.984;8.548;2024-02-16T14:20:10;3.40;;;0.80;;
32297;SDS011;18782;48.984;8.548;2024-02-16T14:22:39;2.92;;;1.45;;
32297;SDS011;18782;48.984;8.548;2024-02-16T14:25:07;2.75;;;1.02;;
32297;SDS011;18782;48.984;8.548;2024-02-16T14:27:36;2.72;;;1.20;;
32297;SDS011;18782;48.984;8.548;2024-02-16T14:30:05;3.72;;;1.10;;
32297;SDS011;18782;48.984;8.548;2024-02-16T14:32:35;3.10;;;1.05;;
32297;SDS011;18782;48.984;8.548;2024-02-16T14:35:03;2.58;;;0.80;;
32297;SDS011;18782;48.984;8.548;2024-02-16T14:37:32;2.63;;;1.13;;
32297;SDS011;18782;48.984;8.548;2024-02-16T14:39:59;3.90;;;1.25;;
32297;SDS011;18782;48.984;8.548;2024-02-16T14:42:27;4.75;;;1.30;;
32297;SDS011;18782;48.984;8.548;2024-02-16T14:44:55;3.70;;;1.90;;
32297;SDS011;18782;48.984;8.548;2024-02-16T14:47:23;4.22;;;1.10;;
32297;SDS011;18782;48.984;8.548;2024-02-16T14:49:52;3.80;;;1.23;;
32297;SDS011;18782;48.984;8.548;2024-02-16T14:52:20;5.03;;;1.00;;
32297;SDS011;18782;48.984;8.548;2024-02-16T14:54:47;3.95;;;1.48;;
32297;SDS011;18782;48.984;8.548;2024-02-16T14:57:15;3.30;;;1.17;;
32297;SDS011;18782;48.984;8.548;2024-02-16T14:59:46;2.50;;;1.30;;